Solicitamos su permiso para obtener datos estadísticos de su navegación en esta web, en cumplimiento del Real Decreto-ley 13/2012. Si continúa navegando consideramos que acepta el uso de cookies. OK | Más información

AIRPORT MAP

METAR AND TAF INFORMATION

METAR FOR GCTS
ADDS - METARS form results

(1733 UTC 21 November 2017)
Data provider http://aviationweather.gov/adds/metars/
 
METAR text: GCTS 211700Z 11003KT 080V170 CAVOK 24/04 Q1016 NOSIG
Conditions at: GCTS (TENERIFE SUR/REI, ES) observed 1700 UTC 21 November 2017
Temperature: 24.0°C (75°F)
Dewpoint: 4.0°C (39°F) [RH = 27%]
Pressure (altimeter): 30.00 inches Hg (1016.0 mb)
Winds: from the ESE (110 degrees) at 3 MPH (3 knots; 1.6 m/s)
Visibility: 6 or more miles (10+ km)
Ceiling: ceiling and visibility are OK
Clouds: unknown
Weather: no significant weather observed at this time

Forecast for: GCTS (TENERIFE SUR/REI, ES)
Text: TAF GCTS 211400Z 2115/2215 10008KT CAVOK TX27/2213Z TN20/2206Z
Forecast period: 1500 UTC 21 November 2017 to 1500 UTC 22 November 2017
Forecast type: FROM: standard forecast or significant change
Winds: from the E (100 degrees) at 9 MPH (8 knots; 4.2 m/s)
Visibility: 6 or more miles (10+ km)
Clouds: not forecast
Weather: no significant weather forecast for this period

}